Time;durP1;ratioP1;P1;durP2;ratioP2;P2;SDS_P1;SDS_P2;PMS_P1;PMS_P2;Temp;Humidity;BMP_temperature;BMP_pressure;BME280_temperature;BME280_humidity;BME280_pressure;Samples;Min_cycle;Max_cycle;Signal;HPM_P1;HPM_P2
2023/06/29 00:01:29;;;;;;;6.53;4.70;;;;;;;;;;5017288;28;20241;-76
2023/06/29 00:03:54;;;;;;;6.87;5.00;;;;;;;;;;5024658;28;20229;-77
2023/06/29 00:06:20;;;;;;;7.83;5.17;;;;;;;;;;5025612;28;20313;-77
2023/06/29 00:08:48;;;;;;;7.40;5.10;;;;;;;;;;5025117;28;20754;-77
2023/06/29 00:11:13;;;;;;;9.23;5.20;;;;;;;;;;5001250;28;20232;-76
2023/06/29 00:13:38;;;;;;;7.43;5.13;;;;;;;;;;5017827;28;20230;-76
2023/06/29 00:16:04;;;;;;;8.00;5.80;;;;;;;;;;4997249;28;20215;-76
2023/06/29 00:18:29;;;;;;;8.43;5.60;;;;;;;;;;5009995;28;20230;-76
2023/06/29 00:20:54;;;;;;;8.20;5.87;;;;;;;;;;5023431;28;20283;-76
2023/06/29 00:23:20;;;;;;;8.87;5.63;;;;;;;;;;5018881;28;20250;-76
2023/06/29 00:25:47;;;;;;;9.80;6.27;;;;;;;;;;5019842;28;20221;-76
2023/06/29 00:28:12;;;;;;;8.80;6.23;;;;;;;;;;4997870;28;20215;-76
2023/06/29 00:30:38;;;;;;;8.27;5.63;;;;;;;;;;5019745;28;20238;-75
2023/06/29 00:33:03;;;;;;;8.27;5.73;;;;;;;;;;5025664;28;20214;-75
2023/06/29 00:35:28;;;;;;;8.00;5.80;;;;;;;;;;5015842;28;20618;-75
2023/06/29 00:37:54;;;;;;;10.63;6.00;;;;;;;;;;5018002;28;20237;-75
2023/06/29 00:40:19;;;;;;;8.13;5.63;;;;;;;;;;5017719;28;20787;-75
2023/06/29 00:42:45;;;;;;;8.03;5.83;;;;;;;;;;4986814;28;20226;-76
2023/06/29 00:45:10;;;;;;;10.10;5.90;;;;;;;;;;4993211;28;20234;-77
2023/06/29 00:47:36;;;;;;;9.40;6.00;;;;;;;;;;5023536;28;20237;-76
2023/06/29 00:50:01;;;;;;;7.93;5.77;;;;;;;;;;5019741;28;20296;-77
2023/06/29 00:52:27;;;;;;;10.20;6.10;;;;;;;;;;5038309;28;20246;-75
2023/06/29 00:54:53;;;;;;;9.23;6.10;;;;;;;;;;5023202;28;20226;-76
2023/06/29 00:57:19;;;;;;;7.73;5.67;;;;;;;;;;5024153;28;20285;-77
2023/06/29 00:59:45;;;;;;;7.70;5.87;;;;;;;;;;5023157;28;20218;-76
2023/06/29 01:02:10;;;;;;;8.57;6.10;;;;;;;;;;5018486;28;20704;-76
2023/06/29 01:04:37;;;;;;;8.40;6.10;;;;;;;;;;5019508;28;20225;-75
2023/06/29 01:07:07;;;;;;;9.43;5.87;;;;;;;;;;4993536;28;20241;-76
2023/06/29 01:09:32;;;;;;;8.47;6.00;;;;;;;;;;5021866;28;20903;-75
2023/06/29 01:11:58;;;;;;;9.77;5.67;;;;;;;;;;5023161;28;20226;-75
2023/06/29 01:14:23;;;;;;;8.97;5.90;;;;;;;;;;5036567;28;20848;-75
2023/06/29 01:16:48;;;;;;;7.93;5.57;;;;;;;;;;5025982;28;20691;-75
2023/06/29 01:19:14;;;;;;;8.47;5.70;;;;;;;;;;5025376;28;20729;-76
2023/06/29 01:21:41;;;;;;;8.20;5.93;;;;;;;;;;5016506;28;20254;-75
2023/06/29 01:24:06;;;;;;;7.87;5.83;;;;;;;;;;5022251;28;20245;-75
2023/06/29 01:26:32;;;;;;;9.10;6.07;;;;;;;;;;5026382;28;20236;-75
2023/06/29 01:28:58;;;;;;;9.13;6.20;;;;;;;;;;5025009;28;20288;-76
2023/06/29 01:31:27;;;;;;;9.77;6.30;;;;;;;;;;5019651;28;20692;-76
2023/06/29 01:33:52;;;;;;;10.07;6.57;;;;;;;;;;5016300;28;20287;-76
2023/06/29 01:36:20;;;;;;;8.70;6.30;;;;;;;;;;5017299;28;20222;-77
2023/06/29 01:38:48;;;;;;;10.27;6.37;;;;;;;;;;5022966;28;20302;-76
2023/06/29 01:41:14;;;;;;;10.13;6.13;;;;;;;;;;5006911;28;20311;-77
2023/06/29 01:43:40;;;;;;;8.90;6.53;;;;;;;;;;5021726;28;21055;-77
2023/06/29 01:46:05;;;;;;;9.57;6.43;;;;;;;;;;5023136;28;20218;-75
2023/06/29 01:48:31;;;;;;;9.30;6.83;;;;;;;;;;5036604;28;20249;-77
2023/06/29 01:50:56;;;;;;;9.73;7.00;;;;;;;;;;5025281;28;20222;-76
2023/06/29 01:53:21;;;;;;;10.07;6.60;;;;;;;;;;5024705;28;20227;-76
2023/06/29 01:55:46;;;;;;;11.90;6.97;;;;;;;;;;5022227;28;20226;-76
2023/06/29 01:58:12;;;;;;;11.90;7.13;;;;;;;;;;5006495;28;20230;-76
2023/06/29 02:00:37;;;;;;;10.17;6.80;;;;;;;;;;5023552;28;20218;-76
2023/06/29 02:03:02;;;;;;;10.57;7.17;;;;;;;;;;5035444;28;20227;-76
2023/06/29 02:05:27;;;;;;;10.93;7.17;;;;;;;;;;5022654;28;20673;-76
2023/06/29 02:07:53;;;;;;;10.90;7.20;;;;;;;;;;5007407;28;20275;-76
2023/06/29 02:10:18;;;;;;;11.47;7.50;;;;;;;;;;5022523;28;20928;-76
2023/06/29 02:12:43;;;;;;;11.00;7.53;;;;;;;;;;5034761;28;20232;-76
2023/06/29 02:15:09;;;;;;;10.47;7.30;;;;;;;;;;5013789;28;20219;-76
2023/06/29 02:17:34;;;;;;;11.57;7.47;;;;;;;;;;5000299;28;20230;-77
2023/06/29 02:19:59;;;;;;;11.77;7.43;;;;;;;;;;5012420;28;20749;-76
2023/06/29 02:22:25;;;;;;;12.03;7.53;;;;;;;;;;4996706;28;20228;-76
2023/06/29 02:24:50;;;;;;;10.63;7.30;;;;;;;;;;4997086;28;20222;-76
2023/06/29 02:27:15;;;;;;;11.10;7.53;;;;;;;;;;5023985;28;20226;-76
2023/06/29 02:29:41;;;;;;;10.47;7.20;;;;;;;;;;5022532;28;20279;-76
2023/06/29 02:32:06;;;;;;;11.50;7.50;;;;;;;;;;5022854;28;20223;-76
2023/06/29 02:34:31;;;;;;;10.50;7.30;;;;;;;;;;5014131;28;20222;-77
2023/06/29 02:36:57;;;;;;;10.97;7.30;;;;;;;;;;4999601;28;20221;-76
2023/06/29 02:39:22;;;;;;;11.23;7.53;;;;;;;;;;4998692;28;20285;-76
2023/06/29 02:41:47;;;;;;;10.67;7.23;;;;;;;;;;5000279;28;20696;-77
2023/06/29 02:44:13;;;;;;;12.23;7.37;;;;;;;;;;5016894;28;20246;-76
2023/06/29 02:46:38;;;;;;;11.50;7.67;;;;;;;;;;5011588;28;20700;-76
2023/06/29 02:49:03;;;;;;;14.10;7.43;;;;;;;;;;5023965;28;20264;-76
2023/06/29 02:51:28;;;;;;;10.73;7.60;;;;;;;;;;5025579;28;20223;-76
2023/06/29 02:53:54;;;;;;;11.03;7.53;;;;;;;;;;5014012;28;20261;-76
2023/06/29 02:56:19;;;;;;;11.50;7.60;;;;;;;;;;5020639;28;20624;-76
2023/06/29 02:58:44;;;;;;;11.20;7.70;;;;;;;;;;5023227;28;20261;-76
2023/06/29 03:01:10;;;;;;;12.97;7.67;;;;;;;;;;5012553;28;20225;-77
2023/06/29 03:03:35;;;;;;;11.97;7.60;;;;;;;;;;5010159;28;20230;-77
2023/06/29 03:06:00;;;;;;;12.27;7.60;;;;;;;;;;5023490;28;20704;-77
2023/06/29 03:08:25;;;;;;;12.53;7.90;;;;;;;;;;4996944;28;20227;-77
2023/06/29 03:10:51;;;;;;;10.63;7.20;;;;;;;;;;5006950;28;20227;-77
2023/06/29 03:13:16;;;;;;;11.03;7.57;;;;;;;;;;5026043;28;20218;-76
2023/06/29 03:15:41;;;;;;;12.27;7.77;;;;;;;;;;5021971;28;20222;-77
2023/06/29 03:18:07;;;;;;;13.30;7.73;;;;;;;;;;5037382;28;20930;-77
2023/06/29 03:20:32;;;;;;;12.13;7.47;;;;;;;;;;5020701;28;20651;-77
2023/06/29 03:22:57;;;;;;;13.87;8.07;;;;;;;;;;5014718;28;20782;-77
2023/06/29 03:25:23;;;;;;;12.03;7.53;;;;;;;;;;5022232;28;20298;-77
2023/06/29 03:27:48;;;;;;;11.60;7.50;;;;;;;;;;5018724;28;20240;-76
2023/06/29 03:30:13;;;;;;;11.70;7.70;;;;;;;;;;5022209;28;20245;-76
2023/06/29 03:32:39;;;;;;;12.70;7.83;;;;;;;;;;5028281;28;20287;-77
2023/06/29 03:35:04;;;;;;;14.10;8.37;;;;;;;;;;5026283;28;20225;-77
2023/06/29 03:37:30;;;;;;;11.83;8.20;;;;;;;;;;5023339;28;20758;-77
2023/06/29 03:39:55;;;;;;;15.03;8.10;;;;;;;;;;5026075;28;20234;-76
2023/06/29 03:42:21;;;;;;;13.00;8.30;;;;;;;;;;5019989;28;20230;-77
2023/06/29 03:44:46;;;;;;;14.23;8.57;;;;;;;;;;5019486;28;20244;-77
2023/06/29 03:47:11;;;;;;;13.50;8.63;;;;;;;;;;5023925;28;20308;-77
2023/06/29 03:49:37;;;;;;;15.87;8.97;;;;;;;;;;5025561;28;20262;-77
2023/06/29 03:52:02;;;;;;;12.77;8.57;;;;;;;;;;5023852;28;20248;-78
2023/06/29 03:54:27;;;;;;;14.90;9.50;;;;;;;;;;5021901;28;20229;-78
2023/06/29 03:56:53;;;;;;;13.97;8.70;;;;;;;;;;5017254;28;20250;-77
2023/06/29 03:59:18;;;;;;;13.43;9.10;;;;;;;;;;5027769;28;20233;-76
2023/06/29 04:01:44;;;;;;;13.80;9.07;;;;;;;;;;5026475;28;20233;-78
2023/06/29 04:04:09;;;;;;;16.47;9.50;;;;;;;;;;5024230;28;20647;-77
2023/06/29 04:06:34;;;;;;;14.33;9.47;;;;;;;;;;5033343;28;20226;-77
2023/06/29 04:09:00;;;;;;;15.73;9.63;;;;;;;;;;5027134;28;20322;-78
2023/06/29 04:11:25;;;;;;;15.63;9.53;;;;;;;;;;4999325;28;20776;-79
2023/06/29 04:13:50;;;;;;;14.93;9.67;;;;;;;;;;4999116;28;20234;-77
2023/06/29 04:16:15;;;;;;;14.33;9.57;;;;;;;;;;5024198;28;20214;-77
2023/06/29 04:18:41;;;;;;;13.43;9.33;;;;;;;;;;5015425;28;20231;-78
2023/06/29 04:21:06;;;;;;;13.73;9.23;;;;;;;;;;5025216;28;20210;-76
2023/06/29 04:23:31;;;;;;;16.63;9.97;;;;;;;;;;5024591;28;20292;-79
2023/06/29 04:25:57;;;;;;;15.57;10.37;;;;;;;;;;5018291;28;20229;-78
2023/06/29 04:28:22;;;;;;;17.20;10.17;;;;;;;;;;5022890;28;20226;-78
2023/06/29 04:30:48;;;;;;;16.77;10.23;;;;;;;;;;4997934;28;20337;-78
2023/06/29 04:33:15;;;;;;;16.37;10.30;;;;;;;;;;5015764;28;20223;-79
2023/06/29 04:35:43;;;;;;;14.80;10.50;;;;;;;;;;5009268;28;20225;-78
2023/06/29 04:38:13;;;;;;;16.40;10.17;;;;;;;;;;5001800;28;20245;-78
2023/06/29 04:40:38;;;;;;;15.17;10.57;;;;;;;;;;5009986;28;20233;-78
2023/06/29 04:43:04;;;;;;;15.77;10.77;;;;;;;;;;5013558;28;20222;-78
2023/06/29 04:45:32;;;;;;;17.77;10.87;;;;;;;;;;5002224;28;20608;-77
2023/06/29 04:47:57;;;;;;;17.33;10.53;;;;;;;;;;5000085;28;20237;-79
2023/06/29 04:50:26;;;;;;;17.10;10.33;;;;;;;;;;4999779;28;20236;-79
2023/06/29 04:52:58;;;;;;;15.73;10.83;;;;;;;;;;5013749;28;20223;-78
2023/06/29 04:55:23;;;;;;;14.83;10.17;;;;;;;;;;5016138;28;20288;-77
2023/06/29 04:57:49;;;;;;;16.03;9.97;;;;;;;;;;5005965;28;20331;-77
2023/06/29 05:00:14;;;;;;;17.77;10.63;;;;;;;;;;4996705;28;20226;-78
2023/06/29 05:02:40;;;;;;;16.67;10.37;;;;;;;;;;4996251;28;20234;-79
2023/06/29 05:05:05;;;;;;;18.50;10.93;;;;;;;;;;5000526;28;20227;-77
2023/06/29 05:07:30;;;;;;;15.77;10.17;;;;;;;;;;4997158;28;20671;-78
2023/06/29 05:09:56;;;;;;;16.43;10.60;;;;;;;;;;5006356;28;20785;-78
2023/06/29 05:12:21;;;;;;;15.63;10.47;;;;;;;;;;4999603;28;20262;-78
2023/06/29 05:14:47;;;;;;;17.03;10.10;;;;;;;;;;4983409;28;20239;-77
2023/06/29 05:17:12;;;;;;;15.97;9.80;;;;;;;;;;5013856;28;20222;-79
2023/06/29 05:19:37;;;;;;;14.93;10.30;;;;;;;;;;4978890;28;20228;-79
2023/06/29 05:22:03;;;;;;;16.53;10.40;;;;;;;;;;5016127;28;20222;-79
2023/06/29 05:24:29;;;;;;;14.57;9.93;;;;;;;;;;5014555;28;20234;-80
2023/06/29 05:26:55;;;;;;;16.43;10.20;;;;;;;;;;5014782;28;20220;-78
2023/06/29 05:29:20;;;;;;;15.83;10.20;;;;;;;;;;5014790;28;20247;-79
2023/06/29 05:31:46;;;;;;;15.73;10.10;;;;;;;;;;5015879;28;20226;-81
2023/06/29 05:34:11;;;;;;;14.60;10.20;;;;;;;;;;4999181;28;20309;-80
2023/06/29 05:36:36;;;;;;;21.57;10.60;;;;;;;;;;5014409;28;20839;-78
2023/06/29 05:39:02;;;;;;;17.33;10.50;;;;;;;;;;4997196;28;20254;-80
2023/06/29 05:41:27;;;;;;;18.37;10.50;;;;;;;;;;5000675;28;20231;-79
2023/06/29 05:43:52;;;;;;;16.97;10.47;;;;;;;;;;5012897;28;20230;-79
2023/06/29 05:46:18;;;;;;;15.90;10.20;;;;;;;;;;5014455;28;20305;-79
2023/06/29 05:48:43;;;;;;;16.40;10.10;;;;;;;;;;4982622;28;20246;-79
2023/06/29 05:51:08;;;;;;;17.23;10.37;;;;;;;;;;4999008;28;20254;-78
2023/06/29 05:53:33;;;;;;;14.27;9.97;;;;;;;;;;5018267;28;20323;-78
2023/06/29 05:55:59;;;;;;;14.40;9.53;;;;;;;;;;4995332;28;20218;-79
2023/06/29 05:58:24;;;;;;;16.40;10.10;;;;;;;;;;4996618;28;20766;-80
2023/06/29 06:00:51;;;;;;;17.50;10.50;;;;;;;;;;5002111;28;20703;-81
2023/06/29 06:03:16;;;;;;;15.70;10.50;;;;;;;;;;5001040;28;20234;-81
2023/06/29 06:05:41;;;;;;;17.27;9.90;;;;;;;;;;5017644;28;20244;-80
2023/06/29 06:08:06;;;;;;;15.13;10.27;;;;;;;;;;5009286;28;20243;-78
2023/06/29 06:10:32;;;;;;;14.97;9.97;;;;;;;;;;4999957;28;20238;-79
2023/06/29 06:12:57;;;;;;;16.03;9.67;;;;;;;;;;4999591;28;20226;-80
2023/06/29 06:15:22;;;;;;;14.87;10.20;;;;;;;;;;4985428;28;20864;-81
2023/06/29 06:17:48;;;;;;;14.93;10.40;;;;;;;;;;4996433;28;20739;-80
2023/06/29 06:20:13;;;;;;;14.57;10.10;;;;;;;;;;4982483;28;20258;-79
2023/06/29 06:22:38;;;;;;;16.97;10.87;;;;;;;;;;5016453;28;21007;-81
2023/06/29 06:25:04;;;;;;;17.23;10.80;;;;;;;;;;5005653;28;20227;-79
2023/06/29 06:27:30;;;;;;;17.73;10.13;;;;;;;;;;5011762;28;20310;-83
2023/06/29 06:29:55;;;;;;;17.20;10.03;;;;;;;;;;4981934;28;20963;-78
2023/06/29 06:32:24;;;;;;;14.93;10.13;;;;;;;;;;5005496;28;20289;-79
2023/06/29 06:34:50;;;;;;;15.17;9.80;;;;;;;;;;5001781;28;20227;-82
2023/06/29 06:37:16;;;;;;;17.93;10.27;;;;;;;;;;5021832;28;20806;-79
2023/06/29 06:39:41;;;;;;;19.03;10.27;;;;;;;;;;5015973;28;20318;-82
2023/06/29 06:42:06;;;;;;;15.90;9.97;;;;;;;;;;5003490;28;20230;-81
2023/06/29 06:44:31;;;;;;;16.40;10.43;;;;;;;;;;5006963;28;20226;-79
2023/06/29 06:46:57;;;;;;;22.03;10.67;;;;;;;;;;5006025;28;20227;-83
2023/06/29 06:49:22;;;;;;;16.37;10.33;;;;;;;;;;5003636;28;20325;-81
2023/06/29 06:51:47;;;;;;;15.70;10.40;;;;;;;;;;5019199;28;20771;-80
2023/06/29 06:54:13;;;;;;;14.63;9.87;;;;;;;;;;5001256;28;20301;-77
2023/06/29 06:56:38;;;;;;;12.87;8.70;;;;;;;;;;4999490;28;20285;-79
2023/06/29 06:59:04;;;;;;;16.77;9.70;;;;;;;;;;5015640;28;20223;-79
2023/06/29 07:01:29;;;;;;;14.23;9.90;;;;;;;;;;5001360;28;20264;-78
2023/06/29 07:03:54;;;;;;;15.87;9.60;;;;;;;;;;4977568;28;20231;-80
2023/06/29 07:06:20;;;;;;;14.53;10.00;;;;;;;;;;4981348;28;20237;-78
2023/06/29 07:08:45;;;;;;;14.43;9.43;;;;;;;;;;5016705;28;20250;-79
2023/06/29 07:11:11;;;;;;;13.77;9.63;;;;;;;;;;5010297;28;20223;-79
2023/06/29 07:13:36;;;;;;;15.40;9.07;;;;;;;;;;5006783;28;20607;-77
2023/06/29 07:16:01;;;;;;;18.13;9.23;;;;;;;;;;4997906;28;20311;-78
2023/06/29 07:18:27;;;;;;;16.13;8.87;;;;;;;;;;5000940;28;20284;-79
2023/06/29 07:20:52;;;;;;;12.53;8.60;;;;;;;;;;4996449;28;20265;-78
2023/06/29 07:23:17;;;;;;;13.93;8.20;;;;;;;;;;4997958;28;20219;-78
2023/06/29 07:25:43;;;;;;;12.20;8.30;;;;;;;;;;4995895;28;20227;-79
2023/06/29 07:28:08;;;;;;;11.80;8.40;;;;;;;;;;4997718;28;20289;-79
2023/06/29 07:30:33;;;;;;;14.73;8.20;;;;;;;;;;4979279;28;20234;-78
2023/06/29 07:32:58;;;;;;;13.73;7.67;;;;;;;;;;4994498;28;20308;-80
2023/06/29 07:35:24;;;;;;;12.07;7.77;;;;;;;;;;5007455;28;20601;-78
2023/06/29 07:37:49;;;;;;;12.53;7.90;;;;;;;;;;5002517;28;20602;-79
2023/06/29 07:40:14;;;;;;;12.90;7.70;;;;;;;;;;4995151;28;20227;-79
2023/06/29 07:42:40;;;;;;;11.80;7.80;;;;;;;;;;4996724;28;20984;-80
2023/06/29 07:45:05;;;;;;;8.57;6.60;;;;;;;;;;4997340;28;20223;-78
2023/06/29 07:47:31;;;;;;;11.67;6.40;;;;;;;;;;5012308;28;20230;-79
2023/06/29 07:49:56;;;;;;;9.30;5.93;;;;;;;;;;5000410;28;20241;-78
2023/06/29 07:52:22;;;;;;;10.80;6.23;;;;;;;;;;5022814;28;20303;-80
2023/06/29 07:54:49;;;;;;;9.20;6.50;;;;;;;;;;5007963;28;20695;-79
2023/06/29 07:57:14;;;;;;;8.03;5.97;;;;;;;;;;5026594;28;20288;-79
2023/06/29 07:59:39;;;;;;;13.27;6.77;;;;;;;;;;5014137;28;20220;-80
2023/06/29 08:02:05;;;;;;;12.87;5.60;;;;;;;;;;5019160;28;20230;-79
2023/06/29 08:04:30;;;;;;;7.10;4.73;;;;;;;;;;5025812;28;20226;-79
2023/06/29 08:06:56;;;;;;;10.23;5.40;;;;;;;;;;5012960;28;20232;-80
2023/06/29 08:09:21;;;;;;;8.13;5.50;;;;;;;;;;5011304;28;20747;-79
2023/06/29 08:11:46;;;;;;;7.33;4.90;;;;;;;;;;5021184;28;20206;-80
2023/06/29 08:14:12;;;;;;;7.30;4.73;;;;;;;;;;5036050;28;20804;-78
2023/06/29 08:16:37;;;;;;;9.20;5.07;;;;;;;;;;5034959;28;20317;-78
2023/06/29 08:19:02;;;;;;;9.60;5.93;;;;;;;;;;5018238;28;20214;-78
2023/06/29 08:21:27;;;;;;;8.37;5.20;;;;;;;;;;5013713;28;20228;-79
2023/06/29 08:23:53;;;;;;;8.23;4.83;;;;;;;;;;5021276;28;20367;-77
2023/06/29 08:26:18;;;;;;;8.23;4.60;;;;;;;;;;4998981;28;20227;-78
2023/06/29 08:28:43;;;;;;;6.77;4.40;;;;;;;;;;5022606;28;20226;-77
2023/06/29 08:31:09;;;;;;;6.50;4.30;;;;;;;;;;5026344;28;20223;-79
2023/06/29 08:33:34;;;;;;;8.40;4.50;;;;;;;;;;5030737;28;20264;-78
2023/06/29 08:35:59;;;;;;;6.63;4.30;;;;;;;;;;5026097;28;20231;-77
2023/06/29 08:38:24;;;;;;;7.40;4.50;;;;;;;;;;5020998;28;20941;-79
2023/06/29 08:40:50;;;;;;;7.07;4.67;;;;;;;;;;5019346;28;20226;-76
2023/06/29 08:43:18;;;;;;;6.13;4.60;;;;;;;;;;4997292;28;20241;-78
2023/06/29 08:45:44;;;;;;;8.40;5.17;;;;;;;;;;5001895;28;20286;-80
2023/06/29 08:48:10;;;;;;;8.00;5.30;;;;;;;;;;5019121;28;20699;-79
2023/06/29 08:50:35;;;;;;;8.50;4.83;;;;;;;;;;5019680;28;20301;-78
2023/06/29 08:53:00;;;;;;;6.93;4.90;;;;;;;;;;5012509;28;20324;-77
2023/06/29 08:55:26;;;;;;;7.67;4.83;;;;;;;;;;5032804;28;20261;-79
2023/06/29 08:57:52;;;;;;;6.77;4.77;;;;;;;;;;5020926;28;20275;-79
2023/06/29 09:00:18;;;;;;;6.80;4.67;;;;;;;;;;5026456;28;20214;-81
2023/06/29 09:02:44;;;;;;;7.67;4.97;;;;;;;;;;5027183;28;20305;-79
2023/06/29 09:05:11;;;;;;;7.83;5.13;;;;;;;;;;5026005;28;20221;-79
2023/06/29 09:07:39;;;;;;;8.20;5.40;;;;;;;;;;5022123;28;20727;-80
2023/06/29 09:10:05;;;;;;;7.70;5.17;;;;;;;;;;5021501;28;20238;-79
2023/06/29 09:12:30;;;;;;;5.23;4.57;;;;;;;;;;5014844;28;20312;-78
2023/06/29 09:14:58;;;;;;;8.27;4.40;;;;;;;;;;5002658;28;20227;-78
2023/06/29 09:17:23;;;;;;;6.63;4.40;;;;;;;;;;5008019;28;20295;-78
2023/06/29 09:19:54;;;;;;;7.13;4.20;;;;;;;;;;5009471;28;21089;-79
2023/06/29 09:22:21;;;;;;;7.33;4.30;;;;;;;;;;5020490;28;20222;-78
2023/06/29 09:24:47;;;;;;;5.73;4.13;;;;;;;;;;5017424;28;20288;-79
2023/06/29 09:27:12;;;;;;;7.67;4.07;;;;;;;;;;5021068;28;20214;-78
2023/06/29 09:29:38;;;;;;;5.83;3.73;;;;;;;;;;5022934;28;20245;-79
2023/06/29 09:32:04;;;;;;;4.90;3.97;;;;;;;;;;5014679;28;20221;-80
2023/06/29 09:34:29;;;;;;;6.20;4.33;;;;;;;;;;5035236;28;20218;-80
2023/06/29 09:36:55;;;;;;;6.03;4.20;;;;;;;;;;5023185;28;20230;-79
2023/06/29 09:39:20;;;;;;;6.33;4.30;;;;;;;;;;5026380;28;20361;-79
2023/06/29 09:41:45;;;;;;;7.17;4.10;;;;;;;;;;5017898;28;20237;-81
2023/06/29 09:44:11;;;;;;;6.97;4.00;;;;;;;;;;5017037;28;20605;-79
2023/06/29 09:46:40;;;;;;;7.30;3.83;;;;;;;;;;4998914;28;20247;-75
2023/06/29 09:49:06;;;;;;;7.57;4.33;;;;;;;;;;5002197;28;20695;-78
2023/06/29 09:51:32;;;;;;;6.03;3.93;;;;;;;;;;5012687;28;20625;-74
2023/06/29 09:53:57;;;;;;;6.87;3.83;;;;;;;;;;4995361;28;20226;-73
2023/06/29 09:56:22;;;;;;;7.70;3.70;;;;;;;;;;4997101;28;20709;-74
2023/06/29 09:58:47;;;;;;;5.80;3.77;;;;;;;;;;5012508;28;20222;-74
2023/06/29 10:01:15;;;;;;;6.23;3.30;;;;;;;;;;5030141;28;20218;-74
2023/06/29 10:03:40;;;;;;;7.47;3.30;;;;;;;;;;5027011;28;20218;-74
2023/06/29 10:06:11;;;;;;;5.27;3.60;;;;;;;;;;5020995;28;20222;-74
2023/06/29 10:08:36;;;;;;;5.23;3.80;;;;;;;;;;5015094;28;20226;-73
2023/06/29 10:11:02;;;;;;;6.47;3.67;;;;;;;;;;5022021;28;20490;-74
2023/06/29 10:13:28;;;;;;;5.23;3.70;;;;;;;;;;5033980;28;20226;-75
2023/06/29 10:15:53;;;;;;;4.93;3.60;;;;;;;;;;5018045;28;20224;-73
2023/06/29 10:18:22;;;;;;;6.70;3.40;;;;;;;;;;5015629;28;20217;-74
2023/06/29 10:20:48;;;;;;;5.10;3.30;;;;;;;;;;5011919;28;20725;-74
2023/06/29 10:23:14;;;;;;;7.13;3.80;;;;;;;;;;5022131;28;20319;-75
2023/06/29 10:25:40;;;;;;;5.00;3.50;;;;;;;;;;5017163;28;20221;-74
2023/06/29 10:28:06;;;;;;;6.37;3.60;;;;;;;;;;4995657;28;20318;-77
2023/06/29 10:30:42;;;;;;;5.87;3.50;;;;;;;;;;4999151;28;20344;-77
2023/06/29 10:33:07;;;;;;;4.17;3.20;;;;;;;;;;4995948;28;20684;-76
2023/06/29 10:35:33;;;;;;;5.33;2.97;;;;;;;;;;5018628;28;20257;-76
2023/06/29 10:37:58;;;;;;;3.63;2.77;;;;;;;;;;5023138;28;20618;-76
2023/06/29 10:40:25;;;;;;;4.67;3.07;;;;;;;;;;5010609;28;20237;-77
2023/06/29 10:42:54;;;;;;;5.40;3.27;;;;;;;;;;5022237;28;20233;-77
2023/06/29 10:45:20;;;;;;;4.40;3.10;;;;;;;;;;5015813;28;20226;-78
2023/06/29 10:47:45;;;;;;;6.27;3.50;;;;;;;;;;5014352;28;20272;-78
2023/06/29 10:50:11;;;;;;;6.97;3.63;;;;;;;;;;5003507;28;20239;-76
2023/06/29 10:52:39;;;;;;;5.63;3.70;;;;;;;;;;5014309;28;20238;-78
2023/06/29 10:55:23;;;;;;;6.00;3.50;;;;;;;;;;5015769;28;20254;-77
2023/06/29 10:57:51;;;;;;;4.40;3.20;;;;;;;;;;4998412;28;20620;-78
2023/06/29 11:00:17;;;;;;;3.90;3.27;;;;;;;;;;5017010;28;20235;-79
2023/06/29 11:02:42;;;;;;;7.10;3.43;;;;;;;;;;5014283;28;20253;-75
2023/06/29 11:05:14;;;;;;;4.07;3.30;;;;;;;;;;5016511;28;20218;-77
2023/06/29 11:07:40;;;;;;;4.53;3.07;;;;;;;;;;5022938;28;20302;-80
2023/06/29 11:10:06;;;;;;;4.47;3.30;;;;;;;;;;5018435;28;20738;-80
2023/06/29 11:12:31;;;;;;;6.38;3.97;;;;;;;;;;5023097;28;20232;-76
2023/06/29 11:14:56;;;;;;;8.30;3.53;;;;;;;;;;5013244;28;20225;-76
2023/06/29 11:17:24;;;;;;;4.80;3.33;;;;;;;;;;5023570;28;20252;-77
2023/06/29 11:19:50;;;;;;;7.13;3.50;;;;;;;;;;5020227;28;20340;-78
2023/06/29 11:22:18;;;;;;;6.57;3.63;;;;;;;;;;5016902;28;20814;-76
2023/06/29 11:24:44;;;;;;;7.60;4.03;;;;;;;;;;5020155;28;20255;-76
2023/06/29 11:27:09;;;;;;;6.15;3.40;;;;;;;;;;5012202;28;20364;-77
2023/06/29 11:29:34;;;;;;;5.32;3.58;;;;;;;;;;4993951;28;20231;-76
2023/06/29 11:32:00;;;;;;;4.93;3.10;;;;;;;;;;5018853;28;20214;-77
2023/06/29 11:34:25;;;;;;;5.13;3.28;;;;;;;;;;5023915;28;20293;-76
2023/06/29 11:36:51;;;;;;;5.53;3.13;;;;;;;;;;5016671;28;20389;-76
2023/06/29 11:39:17;;;;;;;6.00;3.38;;;;;;;;;;5018755;28;20226;-77
2023/06/29 11:41:43;;;;;;;3.90;3.30;;;;;;;;;;5011088;28;20799;-75
2023/06/29 11:44:08;;;;;;;4.18;3.33;;;;;;;;;;5024377;28;20306;-76
2023/06/29 11:46:33;;;;;;;4.68;3.40;;;;;;;;;;5024883;28;20738;-76
2023/06/29 11:48:59;;;;;;;6.17;3.30;;;;;;;;;;5018190;28;20236;-77
2023/06/29 11:51:28;;;;;;;4.10;3.33;;;;;;;;;;5024998;28;20762;-77
2023/06/29 11:53:53;;;;;;;8.63;3.50;;;;;;;;;;5024914;28;20227;-76
2023/06/29 11:56:35;;;;;;;5.13;3.22;;;;;;;;;;5021165;28;20233;-75
2023/06/29 11:59:05;;;;;;;4.55;3.20;;;;;;;;;;5023444;28;20620;-75
2023/06/29 12:01:31;;;;;;;5.47;3.00;;;;;;;;;;5025397;28;20280;-77
2023/06/29 12:03:56;;;;;;;3.83;2.90;;;;;;;;;;5019862;28;20253;-76
2023/06/29 12:06:21;;;;;;;3.22;2.75;;;;;;;;;;5012284;28;20211;-78
2023/06/29 12:08:49;;;;;;;4.20;2.95;;;;;;;;;;5022985;28;20237;-79
2023/06/29 12:11:15;;;;;;;3.90;2.83;;;;;;;;;;5018235;28;20211;-79
2023/06/29 12:13:47;;;;;;;3.72;2.90;;;;;;;;;;5023781;28;20237;-76
2023/06/29 12:16:12;;;;;;;7.15;3.08;;;;;;;;;;5009941;28;20225;-78
2023/06/29 12:18:38;;;;;;;4.68;3.40;;;;;;;;;;5017634;28;20589;-78
2023/06/29 12:21:03;;;;;;;4.47;3.20;;;;;;;;;;5026284;28;20356;-78
2023/06/29 12:23:29;;;;;;;4.47;3.40;;;;;;;;;;5020202;28;20218;-77
2023/06/29 12:25:54;;;;;;;5.38;3.30;;;;;;;;;;5010422;28;20277;-78
2023/06/29 12:28:19;;;;;;;4.35;2.92;;;;;;;;;;5016455;28;20306;-78
2023/06/29 12:30:45;;;;;;;4.93;3.00;;;;;;;;;;5001133;28;20336;-76
2023/06/29 12:33:10;;;;;;;3.95;2.88;;;;;;;;;;5024288;28;20214;-76
2023/06/29 12:35:36;;;;;;;8.70;3.33;;;;;;;;;;4999333;28;20231;-76
2023/06/29 12:38:01;;;;;;;6.82;2.90;;;;;;;;;;5024448;28;20219;-75
2023/06/29 12:40:27;;;;;;;4.55;3.20;;;;;;;;;;5025400;28;20245;-76
2023/06/29 12:42:52;;;;;;;5.07;3.22;;;;;;;;;;5032990;28;20692;-80
2023/06/29 12:45:18;;;;;;;3.40;2.95;;;;;;;;;;5028204;28;20289;-74
2023/06/29 12:47:43;;;;;;;4.88;3.00;;;;;;;;;;5023005;28;20214;-75
2023/06/29 12:50:09;;;;;;;4.07;3.00;;;;;;;;;;5012592;28;20246;-77
2023/06/29 12:52:34;;;;;;;4.40;3.00;;;;;;;;;;5021487;28;20234;-75
2023/06/29 12:54:59;;;;;;;7.25;3.20;;;;;;;;;;5017613;28;20230;-78
2023/06/29 12:57:32;;;;;;;3.70;3.00;;;;;;;;;;5017619;28;20229;-76
2023/06/29 12:59:58;;;;;;;3.42;3.00;;;;;;;;;;5019965;28;20707;-78
2023/06/29 13:02:23;;;;;;;4.97;3.30;;;;;;;;;;5026597;28;20230;-77
2023/06/29 13:04:48;;;;;;;6.80;3.30;;;;;;;;;;5023051;28;20250;-78
2023/06/29 13:07:16;;;;;;;6.82;3.47;;;;;;;;;;5026337;28;20233;-78
2023/06/29 13:09:42;;;;;;;6.65;3.40;;;;;;;;;;5021368;28;20325;-77
2023/06/29 13:12:07;;;;;;;7.05;3.60;;;;;;;;;;5026221;28;20309;-78
2023/06/29 13:14:33;;;;;;;5.22;3.45;;;;;;;;;;5024967;28;20222;-77
2023/06/29 13:16:58;;;;;;;5.82;3.60;;;;;;;;;;5019741;28;20258;-76
2023/06/29 13:19:25;;;;;;;4.88;3.42;;;;;;;;;;5021893;28;20233;-79
2023/06/29 13:21:50;;;;;;;4.90;3.40;;;;;;;;;;5019393;28;20887;-78
2023/06/29 13:24:15;;;;;;;6.18;3.30;;;;;;;;;;5025652;28;20371;-76
2023/06/29 13:26:41;;;;;;;5.03;3.38;;;;;;;;;;5022972;28;20268;-74
2023/06/29 13:29:06;;;;;;;6.10;3.40;;;;;;;;;;5023102;28;20222;-74
2023/06/29 13:31:31;;;;;;;5.63;3.50;;;;;;;;;;5017547;28;20317;-73
2023/06/29 13:33:57;;;;;;;4.85;3.60;;;;;;;;;;5020814;28;20222;-72
2023/06/29 13:36:22;;;;;;;4.93;3.40;;;;;;;;;;5029019;28;20218;-73
2023/06/29 13:38:47;;;;;;;5.57;3.40;;;;;;;;;;5022482;28;20257;-75
2023/06/29 13:41:12;;;;;;;4.40;3.40;;;;;;;;;;5023988;28;20225;-73
2023/06/29 13:43:38;;;;;;;4.82;3.22;;;;;;;;;;5019558;28;20317;-73
2023/06/29 13:46:03;;;;;;;8.93;3.50;;;;;;;;;;5020205;28;20226;-73
2023/06/29 13:48:29;;;;;;;5.05;3.28;;;;;;;;;;5019146;28;20239;-73
2023/06/29 13:50:54;;;;;;;6.60;3.60;;;;;;;;;;5016339;28;20226;-73
2023/06/29 13:53:19;;;;;;;5.40;3.63;;;;;;;;;;5017358;28;20233;-74
2023/06/29 13:55:45;;;;;;;6.18;3.75;;;;;;;;;;5020555;28;20229;-73
2023/06/29 13:58:10;;;;;;;5.10;3.60;;;;;;;;;;4997457;28;20283;-73
2023/06/29 14:00:36;;;;;;;5.75;3.80;;;;;;;;;;5005515;28;20478;-76
2023/06/29 14:03:04;;;;;;;4.93;3.58;;;;;;;;;;5022695;28;20222;-77
2023/06/29 14:05:30;;;;;;;6.97;3.70;;;;;;;;;;4999370;28;20266;-78
2023/06/29 14:07:55;;;;;;;3.85;3.45;;;;;;;;;;4997263;28;20249;-79
2023/06/29 14:10:20;;;;;;;5.13;3.53;;;;;;;;;;5011197;28;20238;-76
2023/06/29 14:12:46;;;;;;;5.05;3.30;;;;;;;;;;5022315;28;20222;-77
2023/06/29 14:15:11;;;;;;;5.18;3.38;;;;;;;;;;5020945;28;20225;-77
2023/06/29 14:17:37;;;;;;;5.97;3.30;;;;;;;;;;5018895;28;20224;-76
2023/06/29 14:20:03;;;;;;;4.70;3.65;;;;;;;;;;5021756;28;20285;-76
2023/06/29 14:22:28;;;;;;;6.13;3.30;;;;;;;;;;5019418;28;20310;-75
2023/06/29 14:24:53;;;;;;;5.28;3.38;;;;;;;;;;5007150;28;20306;-77
2023/06/29 14:27:19;;;;;;;4.55;3.50;;;;;;;;;;5016815;28;20233;-78